Evening Shade, Missouri
Current Conditions -  °F | °C
As of 5:58 PM on Wednesday 22 Oct 2014 (Local Time) from KTBN Reporting Station
Clear Clear  
Wind Chill: 65°   Ceiling: Unl
Heat Index: 65°   Visibility: 10mi
Dew Point: 45°   Wind: 7mph
Humidity: 48%   Direction: 120°ESE
Pressure: 30.17"   Gusts: NA
Location:  37.492°N, 92.1844°W
Report Text: KTBN 222258Z AUTO 12006KT 10SM CLR 18/07 A3017 RMK AO2 SLP218 T01840072
Loading
Personal Weather Stations






























Interactive Weather Map
Tropical Storm Tracking
New forecast layout! Learn more

10-Day Weather Forecast

Advertisements
Track Severe Weather on mobile